createdAt,value
2022-10-21T00:00:58.970Z,14.30
2022-10-21T00:03:34.119Z,14.20
2022-10-21T00:06:10.195Z,14.20
2022-10-21T00:08:45.189Z,14.20
2022-10-21T00:11:20.151Z,14.10
2022-10-21T00:13:55.371Z,14.10
2022-10-21T00:16:30.316Z,14.10
2022-10-21T00:19:05.242Z,14.10
2022-10-21T00:21:41.036Z,14.10
2022-10-21T00:24:16.150Z,14.10
2022-10-21T00:26:51.231Z,14.00
2022-10-21T00:29:26.197Z,14.00
2022-10-21T00:32:01.155Z,14.00
2022-10-21T00:34:36.120Z,14.00
2022-10-21T00:37:11.395Z,14.00
2022-10-21T00:39:46.404Z,14.00
2022-10-21T00:42:23.383Z,13.90
2022-10-21T00:45:07.558Z,13.90
2022-10-21T00:47:55.471Z,13.90
2022-10-21T00:50:52.547Z,13.90
2022-10-21T00:53:28.225Z,13.90
2022-10-21T00:56:15.602Z,13.90
2022-10-21T00:58:54.604Z,13.90
2022-10-21T01:01:30.193Z,13.90
2022-10-21T01:04:05.997Z,13.90
2022-10-21T01:06:42.537Z,13.90
2022-10-21T01:09:20.047Z,13.90
2022-10-21T01:11:55.238Z,13.90
2022-10-21T01:14:53.328Z,13.90
2022-10-21T01:17:49.415Z,13.90
2022-10-21T01:20:44.200Z,13.80
2022-10-21T01:23:52.780Z,13.90
2022-10-21T01:27:05.780Z,13.90
2022-10-21T01:30:01.313Z,13.90
2022-10-21T01:36:26.117Z,13.80
2022-10-21T01:39:19.602Z,13.80
2022-10-21T01:42:17.909Z,13.80
2022-10-21T01:45:14.247Z,13.80
2022-10-21T01:47:54.589Z,13.70
2022-10-21T01:50:36.470Z,13.70
2022-10-21T01:53:15.100Z,13.70
2022-10-21T01:55:51.771Z,13.70
2022-10-21T01:58:31.901Z,13.70
2022-10-21T02:01:09.703Z,13.80
2022-10-21T02:03:49.435Z,13.80
2022-10-21T02:06:25.296Z,13.80
2022-10-21T02:09:00.718Z,13.90
2022-10-21T02:11:39.021Z,13.90
2022-10-21T02:14:37.261Z,14.00
2022-10-21T02:17:17.338Z,14.00
2022-10-21T02:19:52.389Z,14.00
2022-10-21T02:22:28.394Z,14.10
2022-10-21T02:25:16.333Z,14.10
2022-10-21T02:27:52.325Z,14.10
2022-10-21T02:30:34.780Z,14.10
2022-10-21T02:33:24.424Z,14.10
2022-10-21T02:36:16.289Z,14.20
2022-10-21T02:38:58.345Z,14.10
2022-10-21T02:41:35.137Z,14.10
2022-10-21T02:44:10.378Z,14.10
2022-10-21T02:46:48.038Z,14.20
2022-10-21T02:49:22.926Z,14.20
2022-10-21T02:51:57.923Z,14.20
2022-10-21T02:54:32.839Z,14.20
2022-10-21T02:57:07.865Z,14.20
2022-10-21T02:59:42.766Z,14.20
2022-10-21T03:02:17.842Z,14.20
2022-10-21T03:04:52.760Z,14.20
2022-10-21T03:07:27.737Z,14.20
2022-10-21T03:10:02.803Z,14.20
2022-10-21T03:12:37.785Z,14.20
2022-10-21T03:15:12.664Z,14.20
2022-10-21T03:17:48.321Z,14.20
2022-10-21T03:20:23.309Z,14.20
2022-10-21T03:22:58.205Z,14.20
2022-10-21T03:25:35.720Z,14.20
2022-10-21T03:28:11.121Z,14.20
2022-10-21T03:30:46.084Z,14.20
2022-10-21T03:33:21.001Z,14.20
2022-10-21T03:35:55.893Z,14.30
2022-10-21T03:38:30.902Z,14.30
2022-10-21T03:41:05.942Z,14.30
2022-10-21T03:43:40.857Z,14.40
2022-10-21T03:46:15.744Z,14.40
2022-10-21T03:48:50.582Z,14.40
2022-10-21T03:51:25.440Z,14.50
2022-10-21T03:54:00.405Z,14.50
2022-10-21T03:56:35.314Z,14.50
2022-10-21T03:59:10.233Z,14.50
2022-10-21T04:01:45.277Z,14.60
2022-10-21T04:04:20.296Z,14.60
2022-10-21T04:06:55.185Z,14.60
2022-10-21T04:09:30.053Z,14.60
2022-10-21T04:12:05.153Z,14.60
2022-10-21T04:14:40.069Z,14.60
2022-10-21T04:17:14.954Z,14.60
2022-10-21T04:19:49.872Z,14.60
2022-10-21T04:22:24.866Z,14.60
2022-10-21T04:25:02.272Z,14.60
2022-10-21T04:27:39.582Z,14.60
2022-10-21T04:30:14.489Z,14.60
2022-10-21T04:32:50.831Z,14.60
2022-10-21T04:35:25.783Z,14.60
2022-10-21T04:38:00.678Z,14.60
2022-10-21T04:40:35.787Z,14.60
2022-10-21T04:43:10.711Z,14.60
2022-10-21T04:45:45.691Z,14.60
2022-10-21T04:48:21.458Z,14.60
2022-10-21T04:50:56.902Z,14.60
2022-10-21T04:53:32.477Z,14.60
2022-10-21T04:56:07.688Z,14.60
2022-10-21T04:58:42.591Z,14.60
2022-10-21T05:01:17.608Z,14.60
2022-10-21T05:03:52.559Z,14.70
2022-10-21T05:06:27.501Z,14.60
2022-10-21T05:09:02.486Z,14.70
2022-10-21T05:11:37.432Z,14.60
2022-10-21T05:14:12.527Z,14.60
2022-10-21T05:16:47.454Z,14.60
2022-10-21T05:19:22.350Z,14.60
2022-10-21T05:21:57.374Z,14.70
2022-10-21T05:24:32.431Z,14.70
2022-10-21T05:27:07.373Z,14.70
2022-10-21T05:29:42.262Z,14.70
2022-10-21T05:32:21.159Z,14.70
2022-10-21T05:34:56.006Z,14.70
2022-10-21T05:37:30.965Z,14.70
2022-10-21T05:40:07.172Z,14.70
2022-10-21T05:42:42.110Z,14.70
2022-10-21T05:45:17.277Z,14.80
2022-10-21T05:47:52.161Z,14.80
2022-10-21T05:50:27.234Z,14.80
2022-10-21T05:53:02.297Z,14.80
2022-10-21T05:55:37.279Z,14.80
2022-10-21T05:58:12.194Z,14.90
2022-10-21T06:00:48.594Z,14.90
2022-10-21T06:03:29.795Z,14.90
2022-10-21T06:06:07.672Z,14.90
2022-10-21T06:08:42.724Z,15.00
2022-10-21T06:11:19.759Z,15.00
2022-10-21T06:13:54.721Z,14.90
2022-10-21T06:16:29.678Z,15.00
2022-10-21T06:19:04.541Z,15.00
2022-10-21T06:21:39.464Z,15.00
2022-10-21T06:24:14.896Z,15.00
2022-10-21T06:26:51.349Z,14.90
2022-10-21T06:29:27.522Z,15.00
2022-10-21T06:32:02.842Z,15.00
2022-10-21T06:34:38.535Z,15.00
2022-10-21T06:37:13.926Z,15.00
2022-10-21T06:39:48.963Z,15.00
2022-10-21T06:42:23.888Z,15.00
2022-10-21T06:45:00.407Z,15.00
2022-10-21T06:47:35.825Z,15.10
2022-10-21T06:50:12.120Z,15.10
2022-10-21T06:52:50.938Z,15.10
2022-10-21T06:55:25.832Z,15.10
2022-10-21T06:58:01.023Z,15.10
2022-10-21T07:00:37.484Z,15.20
2022-10-21T07:03:12.399Z,15.20
2022-10-21T07:05:47.348Z,15.20
2022-10-21T07:08:22.476Z,15.20
2022-10-21T07:11:05.619Z,15.20
2022-10-21T07:13:40.953Z,15.20
2022-10-21T07:16:24.045Z,15.30
2022-10-21T07:18:59.159Z,15.30
2022-10-21T07:21:34.511Z,15.30
2022-10-21T07:24:10.575Z,15.30
2022-10-21T07:26:45.494Z,15.40
2022-10-21T07:29:20.460Z,15.40
2022-10-21T07:31:55.529Z,15.40
2022-10-21T07:34:30.507Z,15.50
2022-10-21T07:37:05.444Z,15.50
2022-10-21T07:39:40.425Z,15.60
2022-10-21T07:42:15.362Z,15.60
2022-10-21T07:44:57.250Z,15.60
2022-10-21T07:47:32.113Z,15.60
2022-10-21T07:50:07.562Z,15.60
2022-10-21T07:52:51.930Z,15.60
2022-10-21T07:55:38.876Z,15.60
2022-10-21T07:58:13.787Z,15.70
2022-10-21T08:00:48.755Z,15.70
2022-10-21T08:03:23.747Z,15.70
2022-10-21T08:05:59.626Z,15.70
2022-10-21T08:08:35.922Z,15.80
2022-10-21T08:11:11.150Z,15.80
2022-10-21T08:13:46.144Z,15.80
2022-10-21T08:16:21.430Z,15.80
2022-10-21T08:18:59.772Z,15.80
2022-10-21T08:21:36.680Z,15.80
2022-10-21T08:24:11.584Z,15.90
2022-10-21T08:26:46.510Z,15.90
2022-10-21T08:29:21.546Z,15.90
2022-10-21T08:31:56.693Z,15.90
2022-10-21T08:34:31.704Z,15.90
2022-10-21T08:37:06.726Z,16.00
2022-10-21T08:39:41.605Z,16.00
2022-10-21T08:42:17.925Z,16.00
2022-10-21T08:45:08.342Z,16.00
2022-10-21T08:47:50.104Z,16.00
2022-10-21T08:50:41.410Z,16.00
2022-10-21T08:53:46.994Z,15.90
2022-10-21T08:56:22.888Z,15.90
2022-10-21T08:58:58.196Z,15.90
2022-10-21T09:01:59.589Z,16.00
2022-10-21T09:04:56.258Z,16.00
2022-10-21T09:07:58.928Z,16.00
2022-10-21T09:10:45.672Z,16.00
2022-10-21T09:13:32.656Z,16.00
2022-10-21T09:16:19.278Z,16.00
2022-10-21T09:19:26.959Z,15.90
2022-10-21T09:22:35.223Z,16.00
2022-10-21T09:25:28.638Z,16.10
2022-10-21T09:28:16.049Z,16.20
2022-10-21T09:30:52.645Z,16.40
2022-10-21T09:33:32.215Z,16.50
2022-10-21T09:36:34.897Z,16.60
2022-10-21T09:39:30.558Z,16.80
2022-10-21T09:42:11.523Z,16.90
2022-10-21T09:44:58.383Z,17.10
2022-10-21T09:47:33.238Z,17.10
2022-10-21T09:50:16.840Z,17.20
2022-10-21T09:53:09.900Z,17.20
2022-10-21T09:55:50.304Z,17.10
2022-10-21T09:59:06.994Z,17.20
2022-10-21T10:01:43.783Z,17.20
2022-10-21T10:04:34.846Z,17.10
2022-10-21T10:07:39.290Z,17.40
2022-10-21T10:10:33.764Z,17.70
2022-10-21T10:13:23.048Z,17.90
2022-10-21T10:16:22.309Z,18.10
2022-10-21T10:19:18.097Z,18.20
2022-10-21T10:22:16.260Z,18.30
2022-10-21T10:24:51.316Z,18.20
2022-10-21T10:27:27.001Z,18.20
2022-10-21T10:30:06.285Z,18.20
2022-10-21T10:32:41.825Z,18.20
2022-10-21T10:35:37.901Z,18.20
2022-10-21T10:38:26.581Z,18.20
2022-10-21T10:41:18.392Z,18.30
2022-10-21T10:43:55.604Z,18.30
2022-10-21T10:46:34.260Z,18.30
2022-10-21T10:49:18.088Z,18.20
2022-10-21T10:52:11.051Z,18.10
2022-10-21T10:54:46.066Z,18.20
2022-10-21T10:57:35.340Z,18.20
2022-10-21T11:00:22.717Z,18.20
2022-10-21T11:03:05.354Z,18.30
2022-10-21T11:05:48.685Z,18.40
2022-10-21T11:08:34.226Z,18.50
2022-10-21T11:11:38.495Z,18.60
2022-10-21T11:14:20.421Z,18.60
2022-10-21T11:17:12.216Z,18.70
2022-10-21T11:20:17.636Z,18.80
2022-10-21T11:23:18.425Z,18.90
2022-10-21T11:26:07.051Z,18.90
2022-10-21T11:29:01.380Z,18.80
2022-10-21T11:32:41.670Z,18.90
2022-10-21T11:36:01.264Z,19.10
2022-10-21T11:39:07.446Z,19.30
2022-10-21T11:42:12.935Z,19.40
2022-10-21T11:45:23.250Z,19.50
2022-10-21T11:48:15.844Z,19.60
2022-10-21T11:51:37.672Z,19.70
2022-10-21T11:54:30.190Z,19.80
2022-10-21T11:57:32.329Z,19.80
2022-10-21T12:00:19.966Z,19.90
2022-10-21T12:03:31.850Z,19.80
2022-10-21T12:06:45.376Z,19.80
2022-10-21T12:09:30.987Z,19.70
2022-10-21T12:12:23.237Z,19.70
2022-10-21T12:15:04.817Z,19.60
2022-10-21T12:17:39.902Z,19.50
2022-10-21T12:20:23.956Z,19.40
2022-10-21T12:23:06.554Z,19.30
2022-10-21T12:26:18.205Z,19.30
2022-10-21T12:29:06.527Z,19.20
2022-10-21T12:32:15.737Z,19.30
2022-10-21T12:34:50.643Z,19.40
2022-10-21T12:37:52.013Z,19.40
2022-10-21T12:40:26.790Z,19.30
2022-10-21T12:43:05.955Z,19.30
2022-10-21T12:45:41.238Z,19.30
2022-10-21T12:48:44.117Z,19.30
2022-10-21T12:51:28.639Z,19.30
2022-10-21T12:54:03.473Z,19.30
2022-10-21T12:56:50.057Z,19.30
2022-10-21T12:59:38.735Z,19.20
2022-10-21T13:02:28.365Z,19.20
2022-10-21T13:05:03.467Z,19.20
2022-10-21T13:07:39.618Z,19.20
2022-10-21T13:10:23.983Z,19.20
2022-10-21T13:13:36.701Z,19.20
2022-10-21T13:16:20.847Z,19.30
2022-10-21T13:19:32.412Z,19.40
2022-10-21T13:22:36.299Z,19.50
2022-10-21T13:25:24.398Z,19.50
2022-10-21T13:28:14.571Z,19.60
2022-10-21T13:30:49.442Z,19.50
2022-10-21T13:33:37.161Z,19.50
2022-10-21T13:36:14.223Z,19.40
2022-10-21T13:38:52.924Z,19.30
2022-10-21T13:41:30.263Z,19.30
2022-10-21T13:44:07.309Z,19.20
2022-10-21T13:46:43.717Z,19.20
2022-10-21T13:49:33.688Z,19.20
2022-10-21T13:52:10.935Z,19.10
2022-10-21T13:54:46.130Z,19.00
2022-10-21T13:57:21.076Z,19.00
2022-10-21T14:00:07.238Z,19.00
2022-10-21T14:02:54.051Z,19.00
2022-10-21T14:05:40.420Z,18.90
2022-10-21T14:08:34.178Z,18.90
2022-10-21T14:11:18.762Z,18.80
2022-10-21T14:13:56.738Z,18.90
2022-10-21T14:16:37.534Z,18.90
2022-10-21T14:19:20.946Z,18.80
2022-10-21T14:21:59.326Z,18.80
2022-10-21T14:24:43.380Z,18.70
2022-10-21T14:27:48.830Z,18.80
2022-10-21T14:30:27.491Z,18.60
2022-10-21T14:33:04.846Z,18.60
2022-10-21T14:35:39.879Z,18.60
2022-10-21T14:38:42.465Z,18.60
2022-10-21T14:41:32.693Z,18.50
2022-10-21T14:44:23.358Z,18.50
2022-10-21T14:46:59.458Z,18.40
2022-10-21T14:49:48.861Z,18.40
2022-10-21T14:52:29.885Z,18.40
2022-10-21T14:55:15.862Z,18.30
2022-10-21T14:57:53.793Z,18.20
2022-10-21T15:00:41.510Z,18.30
2022-10-21T15:03:38.989Z,18.30
2022-10-21T15:06:24.622Z,18.30
2022-10-21T15:09:18.124Z,18.30
2022-10-21T15:11:53.010Z,18.10
2022-10-21T15:14:30.411Z,18.10
2022-10-21T15:17:10.432Z,18.10
2022-10-21T15:19:51.213Z,18.10
2022-10-21T15:22:34.689Z,18.00
2022-10-21T15:25:19.301Z,18.00
2022-10-21T15:27:57.113Z,18.00
2022-10-21T15:30:35.272Z,18.00
2022-10-21T15:33:12.244Z,18.00
2022-10-21T15:36:01.126Z,17.90
2022-10-21T15:38:36.765Z,18.00
2022-10-21T15:41:21.507Z,17.90
2022-10-21T15:43:56.379Z,17.90
2022-10-21T15:46:45.633Z,17.80
2022-10-21T15:49:23.350Z,17.80
2022-10-21T15:51:58.340Z,17.80
2022-10-21T15:54:33.784Z,17.70
2022-10-21T15:57:21.181Z,17.60
2022-10-21T15:59:56.165Z,17.60
2022-10-21T16:02:31.065Z,17.60
2022-10-21T16:05:06.297Z,17.60
2022-10-21T16:07:42.033Z,17.50
2022-10-21T16:10:32.154Z,17.50
2022-10-21T16:13:07.517Z,17.50
2022-10-21T16:15:42.566Z,17.50
2022-10-21T16:18:17.442Z,17.40
2022-10-21T16:20:54.921Z,17.40
2022-10-21T16:23:31.594Z,17.40
2022-10-21T16:26:22.954Z,17.30
2022-10-21T16:28:58.442Z,17.30
2022-10-21T16:31:33.377Z,17.30
2022-10-21T16:34:08.460Z,17.30
2022-10-21T16:36:43.708Z,17.20
2022-10-21T16:39:25.333Z,17.20
2022-10-21T16:42:00.291Z,17.20
2022-10-21T16:44:35.157Z,17.20
2022-10-21T16:47:17.471Z,17.10
2022-10-21T16:49:52.380Z,17.20
2022-10-21T16:52:27.273Z,17.10
2022-10-21T16:55:02.148Z,17.10
2022-10-21T16:57:37.381Z,17.00
2022-10-21T17:00:13.808Z,17.00
2022-10-21T17:02:49.930Z,17.00
2022-10-21T17:05:25.567Z,17.00
2022-10-21T17:08:00.450Z,16.90
2022-10-21T17:10:35.378Z,16.90
2022-10-21T17:13:12.097Z,16.90
2022-10-21T17:15:47.079Z,17.00
2022-10-21T17:18:21.943Z,16.90
2022-10-21T17:20:56.858Z,17.00
2022-10-21T17:23:32.280Z,17.00
2022-10-21T17:26:07.180Z,16.90
2022-10-21T17:28:42.026Z,16.90
2022-10-21T17:31:29.010Z,16.90
2022-10-21T17:34:08.109Z,16.80
2022-10-21T17:36:42.989Z,16.80
2022-10-21T17:39:17.873Z,16.80
2022-10-21T17:41:53.167Z,16.90
2022-10-21T17:44:28.528Z,16.80
2022-10-21T17:47:03.409Z,16.80
2022-10-21T17:49:39.070Z,16.80
2022-10-21T17:52:13.916Z,16.80
2022-10-21T17:54:48.828Z,16.80
2022-10-21T17:57:24.006Z,16.80
2022-10-21T18:00:04.387Z,16.80
2022-10-21T18:02:40.012Z,16.70
2022-10-21T18:05:15.057Z,16.70
2022-10-21T18:07:49.991Z,16.70
2022-10-21T18:10:24.850Z,16.70
2022-10-21T18:12:59.854Z,16.60
2022-10-21T18:15:37.671Z,16.60
2022-10-21T18:18:12.897Z,16.60
2022-10-21T18:20:48.192Z,16.60
2022-10-21T18:23:23.315Z,16.60
2022-10-21T18:26:05.702Z,16.50
2022-10-21T18:28:40.782Z,16.50
2022-10-21T18:31:15.853Z,16.50
2022-10-21T18:33:54.679Z,16.50
2022-10-21T18:36:30.259Z,16.50
2022-10-21T18:39:05.985Z,16.50
2022-10-21T18:41:41.391Z,16.50
2022-10-21T18:44:16.273Z,16.40
2022-10-21T18:46:53.719Z,16.40
2022-10-21T18:49:30.952Z,16.50
2022-10-21T18:52:05.928Z,16.50
2022-10-21T18:54:40.945Z,16.40
2022-10-21T18:57:15.920Z,16.40
2022-10-21T18:59:50.783Z,16.40
2022-10-21T19:02:25.670Z,16.40
2022-10-21T19:05:02.110Z,16.40
2022-10-21T19:07:37.948Z,16.50
2022-10-21T19:10:14.007Z,16.50
2022-10-21T19:12:48.916Z,16.50
2022-10-21T19:15:23.880Z,16.40
2022-10-21T19:17:58.749Z,16.40
2022-10-21T19:20:33.632Z,16.50
2022-10-21T19:23:08.585Z,16.50
2022-10-21T19:25:43.532Z,16.50
2022-10-21T19:28:18.576Z,16.50
2022-10-21T19:30:53.480Z,16.50
2022-10-21T19:33:29.932Z,16.50
2022-10-21T19:36:06.468Z,16.50
2022-10-21T19:38:44.916Z,16.50
2022-10-21T19:41:22.637Z,16.60
2022-10-21T19:44:00.740Z,16.60
2022-10-21T19:46:36.351Z,16.60
2022-10-21T19:49:14.261Z,16.70
2022-10-21T19:51:49.207Z,16.70
2022-10-21T19:54:24.096Z,16.60
2022-10-21T19:56:59.083Z,16.70
2022-10-21T19:59:34.037Z,16.70
2022-10-21T20:02:11.022Z,16.70
2022-10-21T20:04:46.143Z,16.70
2022-10-21T20:07:21.005Z,16.70
2022-10-21T20:09:56.094Z,16.80
2022-10-21T20:12:31.543Z,16.80
2022-10-21T20:15:07.994Z,16.70
2022-10-21T20:17:42.906Z,16.70
2022-10-21T20:20:17.853Z,16.70
2022-10-21T20:22:52.802Z,16.70
2022-10-21T20:25:27.746Z,16.70
2022-10-21T20:28:02.644Z,16.70
2022-10-21T20:30:37.520Z,16.70
2022-10-21T20:33:12.524Z,16.70
2022-10-21T20:35:47.427Z,16.70
2022-10-21T20:38:22.536Z,16.70
2022-10-21T20:41:06.131Z,16.70
2022-10-21T20:43:42.505Z,16.80
2022-10-21T20:46:20.018Z,16.80
2022-10-21T20:48:55.308Z,16.80
2022-10-21T20:51:30.576Z,16.80
2022-10-21T20:54:14.397Z,16.90
2022-10-21T20:56:49.296Z,16.90
2022-10-21T20:59:24.813Z,16.80
2022-10-21T21:01:59.769Z,16.80
2022-10-21T21:04:34.721Z,16.80
2022-10-21T21:07:13.365Z,16.80
2022-10-21T21:10:02.173Z,16.90
2022-10-21T21:12:38.289Z,16.90
2022-10-21T21:15:13.391Z,16.80
2022-10-21T21:17:49.462Z,16.80
2022-10-21T21:20:24.439Z,16.70
2022-10-21T21:22:59.264Z,16.70
2022-10-21T21:25:34.148Z,16.70
2022-10-21T21:28:09.038Z,16.70
2022-10-21T21:30:52.181Z,16.70
2022-10-21T21:33:27.322Z,16.60
2022-10-21T21:36:04.606Z,16.60
2022-10-21T21:38:39.568Z,16.60
2022-10-21T21:41:16.503Z,16.60
2022-10-21T21:43:53.706Z,16.60
2022-10-21T21:46:28.587Z,16.50
2022-10-21T21:49:06.262Z,16.60
2022-10-21T21:51:41.341Z,16.60
2022-10-21T21:54:16.273Z,16.50
2022-10-21T21:56:54.460Z,16.50
2022-10-21T21:59:35.716Z,16.50
2022-10-21T22:02:10.632Z,16.40
2022-10-21T22:04:46.297Z,16.40
2022-10-21T22:07:21.328Z,16.40
2022-10-21T22:09:56.257Z,16.30
2022-10-21T22:12:31.230Z,16.30
2022-10-21T22:15:07.006Z,16.20
2022-10-21T22:17:42.319Z,16.20
2022-10-21T22:20:19.040Z,16.10
2022-10-21T22:22:53.914Z,16.10
2022-10-21T22:25:28.905Z,16.00
2022-10-21T22:28:03.792Z,16.00
2022-10-21T22:30:38.681Z,15.90
2022-10-21T22:33:13.640Z,15.90
2022-10-21T22:35:48.636Z,15.90
2022-10-21T22:38:24.024Z,15.80
2022-10-21T22:41:01.784Z,15.90
2022-10-21T22:43:36.746Z,15.90
2022-10-21T22:49:06.933Z,15.70
2022-10-21T22:51:41.875Z,15.70
2022-10-21T22:54:36.058Z,15.70
2022-10-21T22:57:11.924Z,15.60
2022-10-21T22:59:52.057Z,15.60
2022-10-21T23:02:27.964Z,15.60
2022-10-21T23:05:02.981Z,15.60
2022-10-21T23:07:37.905Z,15.60
2022-10-21T23:10:12.987Z,15.50
2022-10-21T23:12:47.864Z,15.50
2022-10-21T23:15:22.705Z,15.50
2022-10-21T23:17:58.181Z,15.50
2022-10-21T23:20:33.135Z,15.40
2022-10-21T23:23:08.108Z,15.40
2022-10-21T23:25:43.672Z,15.40
2022-10-21T23:30:59.368Z,15.30
2022-10-21T23:33:34.180Z,15.30
2022-10-21T23:36:09.183Z,15.20
2022-10-21T23:38:44.074Z,15.20
2022-10-21T23:41:19.030Z,15.20
2022-10-21T23:43:54.032Z,15.20
2022-10-21T23:46:28.957Z,15.20
2022-10-21T23:49:03.987Z,15.10
2022-10-21T23:51:38.890Z,15.10
2022-10-21T23:54:13.831Z,15.10
2022-10-21T23:56:48.693Z,15.10
2022-10-21T23:59:23.767Z,15.00
